Time;durP1;ratioP1;P1;durP2;ratioP2;P2;SDS_P1;SDS_P2;PMS_P1;PMS_P2;Temp;Humidity;BMP_temperature;BMP_pressure;BME280_temperature;BME280_humidity;BME280_pressure;Samples;Min_cycle;Max_cycle;Signal;HPM_P1;HPM_P2
2022/01/25 00:31:15;;;;;;;;;;;3.90;99.90;;;;;;12395819;28;20109;-86
2022/01/25 00:37:17;;;;;;;41.17;19.70;;;4.00;99.90;;;;;;12394888;28;20017;-85
2022/01/25 00:43:23;;;;;;;39.35;20.75;;;3.80;99.90;;;;;;12375599;28;20145;-86
2022/01/25 00:49:27;;;;;;;38.05;21.08;;;3.80;99.90;;;;;;12385118;28;20061;-86
2022/01/25 00:55:31;;;;;;;36.43;18.77;;;3.80;99.90;;;;;;12384700;28;20121;-86
2022/01/25 01:01:34;;;;;;;38.07;19.87;;;3.90;99.90;;;;;;12388114;28;20212;-85
2022/01/25 01:07:36;;;;;;;34.58;18.80;;;3.80;99.90;;;;;;12382465;28;20050;-85
2022/01/25 01:51:15;;;;;;;40.78;22.52;;;3.70;99.90;;;;;;12391667;28;20177;-87
2022/01/25 01:57:16;;;;;;;42.00;21.70;;;3.70;99.90;;;;;;12384246;28;20055;-85
2022/01/25 02:03:19;;;;;;;40.70;21.35;;;3.70;99.90;;;;;;12380531;28;20061;-86
2022/01/25 02:09:21;;;;;;;40.17;21.13;;;3.80;99.90;;;;;;12375265;28;20399;-86
2022/01/25 02:15:28;;;;;;;48.67;25.38;;;3.70;99.90;;;;;;12380333;28;20135;-86
2022/01/25 02:27:50;;;;;;;44.03;23.38;;;3.80;99.90;;;;;;12394695;28;20574;-86
2022/01/25 02:33:52;;;;;;;45.22;22.90;;;3.80;99.90;;;;;;12381880;28;20050;-86
2022/01/25 02:39:54;;;;;;;45.55;22.90;;;3.80;99.90;;;;;;12395966;28;20081;-85
2022/01/25 02:46:19;;;;;;;39.70;21.17;;;3.90;99.90;;;;;;12389884;28;20117;-85
2022/01/25 02:52:22;;;;;;;42.50;21.55;;;3.80;99.90;;;;;;12403624;28;20049;-86
2022/01/25 02:58:24;;;;;;;44.00;22.80;;;3.90;99.90;;;;;;12398662;28;20057;-86
2022/01/25 03:04:26;;;;;;;43.78;23.20;;;3.90;99.90;;;;;;12395877;28;20133;-87
2022/01/25 03:10:39;;;;;;;47.70;23.40;;;3.80;99.90;;;;;;12391937;28;20127;-85
2022/01/25 03:16:46;;;;;;;44.60;22.42;;;3.80;99.90;;;;;;12383122;28;20062;-85
2022/01/25 03:28:56;;;;;;;45.90;22.95;;;3.80;99.90;;;;;;12397500;28;20125;-86
2022/01/25 03:34:58;;;;;;;51.67;25.88;;;3.80;99.90;;;;;;12406045;28;20046;-86
2022/01/25 03:41:03;;;;;;;46.97;23.70;;;3.70;99.90;;;;;;12410547;28;20042;-86
2022/01/25 03:47:10;;;;;;;52.25;27.50;;;3.80;99.90;;;;;;12386928;28;20117;-85
2022/01/25 03:53:13;;;;;;;49.15;25.50;;;3.70;99.90;;;;;;12383005;28;20123;-85
2022/01/25 03:59:15;;;;;;;53.83;25.98;;;3.80;99.90;;;;;;12408762;28;20055;-86
2022/01/25 04:05:34;;;;;;;47.03;24.20;;;3.80;99.90;;;;;;12387528;28;20042;-85
2022/01/25 04:11:37;;;;;;;49.90;25.83;;;3.70;99.90;;;;;;12380405;28;20074;-86
2022/01/25 04:17:41;;;;;;;53.40;27.67;;;3.60;99.90;;;;;;12384855;28;20176;-86
2022/01/25 04:30:05;;;;;;;55.67;29.67;;;3.60;99.90;;;;;;12400304;28;20085;-85
2022/01/25 04:36:50;;;;;;;54.75;28.63;;;3.60;99.90;;;;;;12401722;28;20105;-86
2022/01/25 04:55:23;;;;;;;54.25;30.08;;;3.60;99.90;;;;;;12400161;28;20133;-86
2022/01/25 05:01:25;;;;;;;53.80;29.75;;;3.50;99.90;;;;;;12396927;28;20091;-86
2022/01/25 05:07:36;;;;;;;54.90;29.92;;;3.60;99.90;;;;;;12378439;28;20161;-86
2022/01/25 05:13:46;;;;;;;56.78;31.00;;;3.50;99.90;;;;;;12384529;28;20063;-86
2022/01/25 05:25:50;;;;;;;50.28;27.33;;;3.50;99.90;;;;;;12393971;28;20060;-86
2022/01/25 05:31:52;;;;;;;49.97;26.90;;;3.40;99.90;;;;;;12376960;28;20054;-86
2022/01/25 05:37:54;;;;;;;52.85;28.48;;;3.40;99.90;;;;;;12389850;28;20101;-86
2022/01/25 05:50:16;;;;;;;53.00;27.27;;;3.20;99.90;;;;;;12418299;28;20081;-86
2022/01/25 05:56:19;;;;;;;48.50;26.10;;;3.30;99.90;;;;;;12391618;28;20070;-85
2022/01/25 06:02:23;;;;;;;49.08;24.58;;;3.40;99.90;;;;;;12391094;28;20484;-86
2022/01/25 06:08:25;;;;;;;50.47;26.15;;;3.50;99.90;;;;;;12390014;28;20050;-85
2022/01/25 06:14:27;;;;;;;42.60;21.25;;;3.30;99.90;;;;;;12389761;28;20042;-87
2022/01/25 06:20:29;;;;;;;43.22;23.08;;;3.30;99.90;;;;;;12409033;28;20049;-85
2022/01/25 06:26:31;;;;;;;43.83;23.13;;;3.20;99.90;;;;;;12420852;28;20105;-86
2022/01/25 06:32:34;;;;;;;41.55;21.52;;;3.20;99.90;;;;;;12403931;28;20240;-86
2022/01/25 06:38:36;;;;;;;43.88;23.02;;;3.20;99.90;;;;;;12391916;28;20053;-86
2022/01/25 06:44:38;;;;;;;45.85;23.48;;;3.20;99.90;;;;;;12384581;28;20487;-86
2022/01/25 06:50:40;;;;;;;47.63;23.05;;;3.20;99.90;;;;;;12403040;28;20121;-85
2022/01/25 06:56:42;;;;;;;46.53;23.25;;;3.20;99.90;;;;;;12406985;28;20141;-87
2022/01/25 07:02:44;;;;;;;40.45;22.13;;;3.30;99.90;;;;;;12384112;28;20132;-84
2022/01/25 07:08:45;;;;;;;38.10;20.05;;;3.20;99.90;;;;;;12390939;28;20066;-86
2022/01/25 07:14:47;;;;;;;44.78;23.70;;;3.20;99.90;;;;;;12407073;28;20054;-86
2022/01/25 07:20:49;;;;;;;46.35;23.48;;;3.30;99.90;;;;;;12392362;28;20486;-86
2022/01/25 07:26:51;;;;;;;48.55;23.90;;;3.20;99.90;;;;;;12387010;28;20073;-87
2022/01/25 07:33:05;;;;;;;48.15;23.50;;;3.40;99.90;;;;;;12380075;28;20518;-85
2022/01/25 07:39:10;;;;;;;44.10;22.95;;;3.20;99.90;;;;;;12395075;28;20112;-86
2022/01/25 07:45:12;;;;;;;46.85;22.40;;;3.20;99.90;;;;;;12388196;28;20046;-86
2022/01/25 07:51:19;;;;;;;47.55;23.60;;;3.20;99.90;;;;;;12412103;28;20047;-85
2022/01/25 07:57:21;;;;;;;43.95;22.45;;;3.20;99.90;;;;;;12378223;28;20050;-86
2022/01/25 08:03:23;;;;;;;44.75;22.45;;;3.20;99.90;;;;;;12383035;28;20053;-85
2022/01/25 08:09:44;;;;;;;39.00;20.40;;;3.30;99.90;;;;;;12395304;28;20073;-87
2022/01/25 08:15:58;;;;;;;41.33;20.90;;;3.20;99.90;;;;;;12375693;28;21192;-85
2022/01/25 08:22:14;;;;;;;42.17;20.65;;;3.30;99.90;;;;;;12390021;28;20122;-86
2022/01/25 08:28:44;;;;;;;41.95;21.13;;;3.40;99.90;;;;;;12371839;28;20049;-86
2022/01/25 08:34:50;;;;;;;42.15;21.52;;;3.20;99.90;;;;;;12377343;28;20050;-87
2022/01/25 08:40:58;;;;;;;41.15;19.73;;;3.20;99.90;;;;;;12397979;28;20041;-86
2022/01/25 08:47:13;;;;;;;43.58;21.27;;;3.20;99.90;;;;;;12375502;28;20070;-86
2022/01/25 08:53:18;;;;;;;42.00;20.83;;;3.30;99.90;;;;;;12395420;28;20057;-87
2022/01/25 08:59:41;;;;;;;42.53;20.05;;;3.40;99.90;;;;;;12387749;28;20105;-86
2022/01/25 09:05:42;;;;;;;49.75;22.75;;;3.40;99.90;;;;;;12383285;28;20573;-87
2022/01/25 09:11:44;;;;;;;41.35;20.23;;;3.50;99.90;;;;;;12375474;28;20550;-87
2022/01/25 09:17:47;;;;;;;43.53;20.52;;;3.50;99.90;;;;;;12389883;28;20149;-86
2022/01/25 09:23:49;;;;;;;39.25;19.63;;;3.50;99.90;;;;;;12375257;28;20057;-87
2022/01/25 09:29:51;;;;;;;39.72;19.92;;;3.40;99.90;;;;;;12383712;28;20162;-86
2022/01/25 09:35:54;;;;;;;41.40;20.20;;;3.40;99.90;;;;;;12371974;28;20042;-86
2022/01/25 09:41:57;;;;;;;38.88;18.13;;;3.60;99.90;;;;;;12385314;28;20038;-87
2022/01/25 09:47:59;;;;;;;35.30;17.67;;;3.70;99.90;;;;;;12383237;28;20065;-86
2022/01/25 09:54:01;;;;;;;33.15;17.23;;;3.70;99.90;;;;;;12389967;28;20154;-85
2022/01/25 10:00:05;;;;;;;34.83;16.95;;;3.70;99.90;;;;;;12388803;28;20120;-86
2022/01/25 10:06:14;;;;;;;39.35;19.05;;;3.80;99.90;;;;;;12378290;28;20154;-85
2022/01/25 10:12:22;;;;;;;36.58;17.98;;;3.80;99.90;;;;;;12398392;28;20218;-86
2022/01/25 10:18:41;;;;;;;38.55;17.55;;;3.60;99.90;;;;;;12380574;28;20508;-85
2022/01/25 10:24:43;;;;;;;41.10;17.73;;;3.60;99.90;;;;;;12394540;28;20073;-86
2022/01/25 10:30:53;;;;;;;35.75;16.75;;;3.70;99.90;;;;;;12382195;28;20053;-87
2022/01/25 10:36:57;;;;;;;34.03;16.40;;;3.90;99.90;;;;;;12389196;28;20050;-87
2022/01/25 10:42:59;;;;;;;35.00;17.50;;;3.80;99.90;;;;;;12404944;28;20058;-87
2022/01/25 10:49:07;;;;;;;39.40;17.73;;;3.90;99.90;;;;;;12399525;28;20446;-87
2022/01/25 10:55:10;;;;;;;31.55;17.15;;;3.90;99.90;;;;;;12396941;28;20073;-86
2022/01/25 11:01:12;;;;;;;39.85;19.38;;;3.90;99.90;;;;;;12403798;28;20051;-87
2022/01/25 11:07:14;;;;;;;38.85;18.63;;;3.80;99.90;;;;;;12396196;28;20053;-87
2022/01/25 11:13:35;;;;;;;43.08;21.13;;;3.90;99.90;;;;;;12409161;28;20057;-86
2022/01/25 11:19:37;;;;;;;41.20;20.63;;;3.70;99.90;;;;;;12387487;28;20180;-87
2022/01/25 11:25:41;;;;;;;41.72;19.70;;;3.80;99.90;;;;;;12402434;28;20595;-87
2022/01/25 11:31:49;;;;;;;40.67;19.80;;;3.90;99.90;;;;;;12387650;28;20050;-86
2022/01/25 11:37:51;;;;;;;44.88;20.30;;;3.80;99.90;;;;;;12407657;28;20030;-87
2022/01/25 11:44:26;;;;;;;46.70;20.95;;;3.70;99.90;;;;;;12408110;28;20140;-86
2022/01/25 11:50:31;;;;;;;41.40;19.88;;;3.80;99.90;;;;;;12391605;28;20137;-86
2022/01/25 11:56:36;;;;;;;40.35;17.52;;;3.90;99.90;;;;;;12385317;28;20057;-86
2022/01/25 12:02:46;;;;;;;36.28;17.70;;;4.10;99.90;;;;;;12381105;28;20598;-85
2022/01/25 12:15:12;;;;;;;33.50;17.73;;;4.00;99.90;;;;;;12436983;28;20371;-86
2022/01/25 12:21:13;;;;;;;35.13;18.42;;;3.90;99.90;;;;;;12422105;28;20789;-86
2022/01/25 12:27:44;;;;;;;39.47;20.23;;;4.10;99.90;;;;;;12699263;27;20427;-40
2022/01/25 12:33:55;;;;;;;38.97;19.23;;;3.90;99.90;;;;;;12576517;28;20052;-37
2022/01/25 12:40:30;;;;;;;43.92;20.38;;;3.90;99.90;;;;;;12549566;28;20045;-41
2022/01/25 12:46:41;;;;;;;39.22;19.30;;;3.90;99.90;;;;;;12519636;28;20151;-36
2022/01/25 12:52:48;;;;;;;40.38;17.40;;;3.90;99.90;;;;;;12546509;28;20092;-37
2022/01/25 12:59:12;;;;;;;36.28;17.60;;;3.90;99.90;;;;;;12543613;28;20505;-37
2022/01/25 13:05:21;;;;;;;41.80;19.38;;;3.70;99.90;;;;;;12539903;28;20045;-36
2022/01/25 13:17:40;;;;;;;40.72;19.15;;;3.70;99.90;;;;;;12545078;28;20398;-36
2022/01/25 13:23:53;;;;;;;37.78;18.45;;;3.80;99.90;;;;;;12557737;28;20523;-41
2022/01/25 13:36:28;;;;;;;42.22;19.65;;;3.70;99.90;;;;;;12574374;28;20059;-39
2022/01/25 13:43:18;;;;;;;40.90;18.55;;;3.70;99.90;;;;;;12559856;28;20048;-44
2022/01/25 13:49:07;;;;;;;43.80;19.90;;;3.80;99.90;;;;;;12554041;28;20072;-37
2022/01/25 13:55:11;;;;;;;47.35;20.13;;;3.60;99.90;;;;;;12514384;28;20456;-41
2022/01/25 14:01:14;;;;;;;40.95;20.08;;;3.60;99.90;;;;;;12519508;28;21048;-37
2022/01/25 14:07:20;;;;;;;44.33;19.20;;;3.70;99.90;;;;;;12555469;28;20072;-37
2022/01/25 14:26:11;;;;;;;45.22;19.73;;;3.60;99.90;;;;;;12554476;28;20274;-40
2022/01/25 14:32:14;;;;;;;47.03;21.23;;;3.70;99.90;;;;;;12557740;28;20079;-40
2022/01/25 14:38:26;;;;;;;42.92;18.75;;;3.60;99.90;;;;;;12553710;28;20068;-40
2022/01/25 14:44:30;;;;;;;44.00;20.08;;;3.70;99.90;;;;;;12554839;28;20041;-40
2022/01/25 14:50:34;;;;;;;43.03;19.17;;;3.50;99.90;;;;;;12547587;28;20041;-36
2022/01/25 14:56:51;;;;;;;40.67;18.80;;;3.50;99.90;;;;;;12553991;28;20139;-40
2022/01/25 15:02:59;;;;;;;41.72;19.02;;;3.60;99.90;;;;;;12552215;28;20409;-41
2022/01/25 15:09:18;;;;;;;43.83;18.83;;;3.50;99.90;;;;;;12559038;28;20056;-37
2022/01/25 15:15:46;;;;;;;46.65;19.48;;;3.40;99.90;;;;;;12557272;28;20501;-40
2022/01/25 15:22:00;;;;;;;48.00;18.80;;;3.50;99.90;;;;;;12559449;28;20056;-36
2022/01/25 15:28:17;;;;;;;46.97;19.50;;;3.40;99.90;;;;;;12558790;28;20044;-36
2022/01/25 15:34:33;;;;;;;45.60;19.77;;;3.40;99.90;;;;;;12553352;28;20462;-36
2022/01/25 15:40:46;;;;;;;39.42;17.27;;;3.40;99.90;;;;;;12547954;28;20556;-38
2022/01/25 15:46:58;;;;;;;40.67;16.48;;;3.40;99.90;;;;;;12556134;28;20063;-36
2022/01/25 15:53:09;;;;;;;40.20;16.90;;;3.40;99.90;;;;;;12550915;28;20048;-40
2022/01/25 15:59:24;;;;;;;40.97;17.48;;;3.40;99.90;;;;;;12560764;28;20091;-39
2022/01/25 16:05:32;;;;;;;36.35;16.13;;;3.40;99.90;;;;;;12533457;28;20097;-36
2022/01/25 16:11:42;;;;;;;36.20;14.63;;;3.30;99.90;;;;;;12542246;28;20172;-41
2022/01/25 16:17:49;;;;;;;37.28;16.65;;;3.30;99.90;;;;;;12553430;28;20404;-41
2022/01/25 16:23:55;;;;;;;39.38;17.08;;;3.30;99.90;;;;;;12541833;28;20045;-36
2022/01/25 16:29:57;;;;;;;38.78;16.52;;;3.30;99.90;;;;;;12548421;28;20169;-41
2022/01/25 16:36:06;;;;;;;38.47;17.83;;;3.30;99.90;;;;;;12549673;28;20049;-41
2022/01/25 16:42:18;;;;;;;33.55;15.70;;;3.30;99.90;;;;;;12557154;28;20048;-41
2022/01/25 16:48:39;;;;;;;38.70;16.42;;;3.30;99.90;;;;;;12553934;28;20143;-36
2022/01/25 16:54:45;;;;;;;34.38;16.98;;;3.30;99.90;;;;;;12547609;28;20072;-41
2022/01/25 17:01:09;;;;;;;33.28;16.50;;;3.30;99.90;;;;;;12551302;28;20060;-37
2022/01/25 17:07:14;;;;;;;35.50;16.25;;;3.20;99.90;;;;;;12550941;28;20049;-40
2022/01/25 17:13:21;;;;;;;38.58;16.85;;;3.30;99.90;;;;;;12552979;28;20048;-40
2022/01/25 17:19:28;;;;;;;38.38;16.90;;;3.20;99.90;;;;;;12565145;28;20052;-40
2022/01/25 17:25:38;;;;;;;38.35;16.98;;;3.20;99.90;;;;;;12540302;28;20053;-42
2022/01/25 17:31:48;;;;;;;39.10;16.52;;;3.10;99.90;;;;;;12542600;28;20098;-41
2022/01/25 17:37:57;;;;;;;35.22;15.93;;;3.20;99.90;;;;;;12561987;28;20056;-40
2022/01/25 17:44:09;;;;;;;37.15;15.95;;;3.10;99.90;;;;;;12557892;28;20099;-40
2022/01/25 17:50:22;;;;;;;34.53;15.38;;;3.10;99.90;;;;;;12559847;28;20049;-40
2022/01/25 17:56:36;;;;;;;35.60;15.68;;;3.10;99.90;;;;;;12552433;28;20558;-41
2022/01/25 18:02:49;;;;;;;38.25;17.23;;;3.10;99.90;;;;;;12566990;28;20055;-37
2022/01/25 18:09:03;;;;;;;38.22;16.85;;;3.10;99.90;;;;;;12531756;28;20484;-40
2022/01/25 18:15:15;;;;;;;42.75;18.90;;;3.20;99.90;;;;;;12535380;28;20056;-37
2022/01/25 18:21:34;;;;;;;38.42;17.65;;;3.30;99.90;;;;;;12563791;28;20052;-37
2022/01/25 18:27:45;;;;;;;39.55;17.08;;;3.20;99.90;;;;;;12569780;28;20059;-36
2022/01/25 18:33:57;;;;;;;30.70;15.02;;;3.10;99.90;;;;;;12554809;28;20048;-40
2022/01/25 18:40:14;;;;;;;34.70;16.27;;;3.20;99.90;;;;;;12555411;28;20061;-41
2022/01/25 18:46:26;;;;;;;38.22;16.27;;;3.10;99.90;;;;;;12550255;28;20057;-37
2022/01/25 18:52:36;;;;;;;36.65;15.95;;;3.10;99.90;;;;;;12557505;28;20056;-40
2022/01/25 18:58:44;;;;;;;35.03;16.80;;;3.10;99.90;;;;;;12561756;28;20056;-36
2022/01/25 19:04:52;;;;;;;41.60;18.70;;;3.20;99.90;;;;;;12549255;28;20179;-37
2022/01/25 19:11:14;;;;;;;32.13;16.05;;;3.10;99.90;;;;;;12566129;28;20525;-41
2022/01/25 19:17:29;;;;;;;34.83;16.10;;;3.00;99.90;;;;;;12552047;28;20052;-40
2022/01/25 19:23:45;;;;;;;38.60;16.55;;;3.00;99.90;;;;;;12552129;28;20048;-37
2022/01/25 19:29:58;;;;;;;37.15;17.83;;;3.00;99.90;;;;;;12545093;28;20045;-36
2022/01/25 19:36:12;;;;;;;40.97;18.48;;;3.10;99.90;;;;;;12557851;28;20052;-41
2022/01/25 19:42:29;;;;;;;42.13;18.60;;;3.00;99.90;;;;;;12557499;28;20041;-36
2022/01/25 19:48:41;;;;;;;39.17;17.50;;;3.00;99.90;;;;;;12556409;28;20049;-40
2022/01/25 19:54:53;;;;;;;41.95;17.35;;;3.00;99.90;;;;;;12548874;28;20049;-40
2022/01/25 20:01:11;;;;;;;35.20;16.75;;;3.10;99.90;;;;;;12531231;28;20052;-36
2022/01/25 20:07:21;;;;;;;37.90;15.98;;;3.10;99.90;;;;;;12560516;28;21151;-37
2022/01/25 20:13:39;;;;;;;32.75;14.63;;;3.00;99.90;;;;;;12551094;28;20056;-37
2022/01/25 20:19:51;;;;;;;30.00;14.43;;;3.10;99.90;;;;;;12544714;28;20056;-40
2022/01/25 20:26:15;;;;;;;27.52;12.65;;;3.00;99.90;;;;;;12545179;28;20056;-40
2022/01/25 20:32:31;;;;;;;33.58;15.48;;;3.00;99.90;;;;;;12556144;28;20434;-41
2022/01/25 20:38:43;;;;;;;36.28;15.57;;;2.90;99.90;;;;;;12530146;28;20057;-37
2022/01/25 20:44:56;;;;;;;34.78;14.57;;;3.00;99.90;;;;;;12558963;28;20437;-37
2022/01/25 20:51:08;;;;;;;;;;;3.00;99.90;;;;;;12566332;28;20057;-41
2022/01/25 20:57:19;;;;;;;34.70;15.07;;;3.00;99.90;;;;;;12566886;28;19924;-40
2022/01/25 21:10:21;;;;;;;27.40;13.45;;;3.00;99.90;;;;;;12539965;28;20124;-40
2022/01/25 21:16:37;;;;;;;31.05;13.75;;;3.00;99.90;;;;;;12568360;28;20402;-37
2022/01/25 21:22:47;;;;;;;34.38;15.93;;;3.10;99.90;;;;;;12556313;28;20065;-39
2022/01/25 21:29:01;;;;;;;25.80;12.95;;;3.00;99.90;;;;;;12611393;28;20089;-36
2022/01/25 21:35:12;;;;;;;30.23;13.63;;;3.10;99.90;;;;;;12604448;28;20048;-40
2022/01/25 21:41:23;;;;;;;32.10;15.20;;;2.90;99.90;;;;;;12604375;28;20076;-41
2022/01/25 21:47:31;;;;;;;29.30;13.93;;;2.90;99.90;;;;;;12616494;28;20090;-36
2022/01/25 21:53:40;;;;;;;31.02;13.55;;;2.90;99.90;;;;;;12616017;28;20048;-40
2022/01/25 21:59:50;;;;;;;30.63;14.00;;;3.00;99.90;;;;;;12615394;28;20044;-39
2022/01/25 22:12:43;;;;;;;30.85;14.95;;;2.90;99.90;;;;;;12613452;28;20055;-42
2022/01/25 22:18:51;;;;;;;34.58;15.68;;;2.90;99.90;;;;;;12619257;28;20503;-41
2022/01/25 22:25:00;;;;;;;31.45;13.82;;;2.90;99.90;;;;;;12579711;28;20513;-37
2022/01/25 22:31:09;;;;;;;31.63;14.98;;;2.90;99.90;;;;;;12555705;28;20489;-36
2022/01/25 22:37:16;;;;;;;35.10;16.20;;;2.90;99.90;;;;;;12559520;28;20182;-37
2022/01/25 22:43:59;;;;;;;34.72;16.10;;;2.90;99.90;;;;;;12551990;28;20044;-39
2022/01/25 22:49:57;;;;;;;39.20;15.55;;;2.80;99.90;;;;;;12559724;28;20421;-41
2022/01/25 22:56:06;;;;;;;40.70;16.48;;;2.80;99.90;;;;;;12559166;28;20517;-37
2022/01/25 23:08:25;;;;;;;33.80;15.23;;;2.80;99.90;;;;;;12558054;28;20048;-37
2022/01/25 23:14:57;;;;;;;36.87;15.10;;;2.80;99.90;;;;;;12565060;28;20055;-36
2022/01/25 23:21:14;;;;;;;38.78;16.27;;;2.70;99.90;;;;;;12559647;28;20423;-40
2022/01/25 23:27:31;;;;;;;38.67;17.35;;;2.70;99.90;;;;;;12564190;28;20086;-36
2022/01/25 23:34:05;;;;;;;36.17;16.23;;;2.70;99.90;;;;;;12552666;28;20056;-36
2022/01/25 23:40:21;;;;;;;41.50;17.30;;;2.70;99.90;;;;;;12562452;28;20048;-36
2022/01/25 23:46:39;;;;;;;44.17;19.17;;;2.80;99.90;;;;;;12563552;28;20093;-36
2022/01/25 23:59:21;;;;;;;44.28;18.45;;;2.50;99.90;;;;;;12561382;28;20973;-40
